Time;durP1;ratioP1;P1;durP2;ratioP2;P2;SDS_P1;SDS_P2;PMS_P1;PMS_P2;Temp;Humidity;BMP_temperature;BMP_pressure;BME280_temperature;BME280_humidity;BME280_pressure;Samples;Min_cycle;Max_cycle;Signal;HPM_P1;HPM_P2
2021/11/23 00:00:36;;;;;;;5.03;0.60;;;;;;;;;;5071222;28;20032;-62
2021/11/23 00:03:03;;;;;;;1.87;0.63;;;;;;;;;;5068536;28;20043;-62
2021/11/23 00:05:29;;;;;;;3.33;0.90;;;;;;;;;;5072660;28;20024;-62
2021/11/23 00:07:56;;;;;;;3.60;0.87;;;;;;;;;;5072734;28;20035;-62
2021/11/23 00:10:23;;;;;;;1.83;0.60;;;;;;;;;;5072646;28;20028;-62
2021/11/23 00:12:50;;;;;;;0.80;0.43;;;;;;;;;;5076163;28;20035;-62
2021/11/23 00:15:16;;;;;;;3.10;0.47;;;;;;;;;;5091723;28;20036;-62
2021/11/23 00:17:43;;;;;;;2.73;0.93;;;;;;;;;;5077727;28;20040;-62
2021/11/23 00:20:10;;;;;;;1.53;0.60;;;;;;;;;;5081747;28;20082;-63
2021/11/23 00:22:37;;;;;;;3.20;0.90;;;;;;;;;;5087300;28;20024;-62
2021/11/23 00:25:04;;;;;;;0.67;0.40;;;;;;;;;;5087309;28;20045;-62
2021/11/23 00:27:31;;;;;;;3.97;0.80;;;;;;;;;;5091049;28;20490;-62
2021/11/23 00:29:58;;;;;;;1.67;0.60;;;;;;;;;;5072431;28;20075;-62
2021/11/23 00:32:25;;;;;;;0.87;0.40;;;;;;;;;;5072315;28;20028;-62
2021/11/23 00:34:51;;;;;;;8.03;0.60;;;;;;;;;;5076336;28;20016;-62
2021/11/23 00:37:18;;;;;;;2.70;0.50;;;;;;;;;;5091417;28;20541;-62
2021/11/23 00:39:45;;;;;;;0.60;0.50;;;;;;;;;;5086765;28;20057;-62
2021/11/23 00:42:12;;;;;;;2.47;1.00;;;;;;;;;;5086656;28;20081;-62
2021/11/23 00:44:39;;;;;;;2.40;1.27;;;;;;;;;;5087137;28;20024;-63
2021/11/23 00:47:05;;;;;;;1.20;0.70;;;;;;;;;;5083614;28;20024;-62
2021/11/23 00:49:32;;;;;;;2.10;0.90;;;;;;;;;;5072020;28;20056;-62
2021/11/23 00:51:59;;;;;;;2.53;0.73;;;;;;;;;;5085696;28;20572;-62
2021/11/23 00:54:26;;;;;;;1.07;0.47;;;;;;;;;;5092004;28;20374;-62
2021/11/23 00:56:53;;;;;;;2.30;0.90;;;;;;;;;;5090567;28;20036;-62
2021/11/23 00:59:19;;;;;;;1.80;0.37;;;;;;;;;;5071893;28;20922;-62
2021/11/23 01:01:46;;;;;;;1.40;0.30;;;;;;;;;;5066466;28;20039;-62
2021/11/23 01:04:13;;;;;;;2.40;0.53;;;;;;;;;;5066596;28;20033;-62
2021/11/23 01:06:40;;;;;;;1.07;0.50;;;;;;;;;;5066406;28;20098;-62
2021/11/23 01:09:07;;;;;;;1.13;0.60;;;;;;;;;;5066241;28;20564;-63
2021/11/23 01:11:34;;;;;;;1.87;0.70;;;;;;;;;;5072196;28;20258;-62
2021/11/23 01:14:01;;;;;;;1.70;0.50;;;;;;;;;;5091629;28;20028;-62
2021/11/23 01:16:27;;;;;;;3.70;0.57;;;;;;;;;;5092003;28;20036;-62
2021/11/23 01:18:54;;;;;;;1.70;0.50;;;;;;;;;;5077740;28;20089;-62
2021/11/23 01:21:21;;;;;;;1.47;0.80;;;;;;;;;;5071962;28;20035;-62
2021/11/23 01:23:48;;;;;;;3.03;0.87;;;;;;;;;;5084067;28;20035;-62
2021/11/23 01:26:15;;;;;;;1.40;0.43;;;;;;;;;;5086451;28;20032;-62
2021/11/23 01:28:41;;;;;;;1.13;0.30;;;;;;;;;;5085475;28;20028;-61
2021/11/23 01:31:08;;;;;;;3.00;0.40;;;;;;;;;;5086234;28;20500;-61
2021/11/23 01:33:35;;;;;;;1.27;0.67;;;;;;;;;;5090849;28;20032;-62
2021/11/23 01:36:02;;;;;;;2.40;0.30;;;;;;;;;;5084229;28;20040;-62
2021/11/23 01:38:29;;;;;;;0.60;0.30;;;;;;;;;;5084587;28;20035;-62
2021/11/23 01:40:56;;;;;;;0.93;0.40;;;;;;;;;;5071502;28;20161;-61
2021/11/23 01:43:23;;;;;;;1.80;0.50;;;;;;;;;;5071477;28;20463;-62
2021/11/23 01:45:52;;;;;;;1.03;0.40;;;;;;;;;;5066087;28;20107;-62
2021/11/23 01:48:18;;;;;;;0.33;0.20;;;;;;;;;;5066301;28;20035;-62
2021/11/23 01:50:46;;;;;;;1.10;0.30;;;;;;;;;;5077483;28;20032;-62
2021/11/23 01:53:12;;;;;;;3.03;1.57;;;;;;;;;;5084573;28;20024;-62
2021/11/23 01:55:40;;;;;;;0.70;0.30;;;;;;;;;;5082391;28;20498;-62
2021/11/23 01:58:08;;;;;;;0.30;0.10;;;;;;;;;;5091673;28;20489;-61
2021/11/23 02:00:35;;;;;;;2.53;0.30;;;;;;;;;;5091354;28;20016;-61
2021/11/23 02:03:02;;;;;;;1.60;0.40;;;;;;;;;;5074253;28;20055;-61
2021/11/23 02:05:29;;;;;;;1.03;0.33;;;;;;;;;;5094822;28;20039;-61
2021/11/23 02:07:56;;;;;;;2.23;0.83;;;;;;;;;;5089947;28;20032;-61
2021/11/23 02:10:23;;;;;;;0.80;0.30;;;;;;;;;;5071132;28;20345;-62
2021/11/23 02:12:49;;;;;;;2.03;0.20;;;;;;;;;;5089883;28;20024;-61
2021/11/23 02:15:16;;;;;;;2.63;0.50;;;;;;;;;;5089445;28;20517;-61
2021/11/23 02:17:44;;;;;;;1.00;0.53;;;;;;;;;;5093112;28;20107;-61
2021/11/23 02:20:15;;;;;;;1.20;0.43;;;;;;;;;;5089323;28;20036;-61
2021/11/23 02:22:42;;;;;;;0.40;0.30;;;;;;;;;;5089130;28;20060;-61
2021/11/23 02:25:10;;;;;;;2.13;0.20;;;;;;;;;;5076900;28;20086;-60
2021/11/23 02:27:37;;;;;;;0.53;0.40;;;;;;;;;;5094735;28;20086;-61
2021/11/23 02:30:05;;;;;;;2.47;0.57;;;;;;;;;;5089014;28;20028;-61
2021/11/23 02:32:43;;;;;;;0.70;0.20;;;;;;;;;;5089509;28;20031;-61
2021/11/23 02:35:10;;;;;;;1.10;0.50;;;;;;;;;;5071921;28;21334;-61
2021/11/23 02:37:48;;;;;;;0.60;0.33;;;;;;;;;;5068902;28;20029;-61
2021/11/23 02:40:15;;;;;;;1.13;0.40;;;;;;;;;;5073842;28;20033;-61
2021/11/23 02:42:42;;;;;;;0.80;0.23;;;;;;;;;;5056412;28;20031;-61
2021/11/23 02:45:09;;;;;;;0.53;0.23;;;;;;;;;;5074441;28;20089;-61
2021/11/23 02:47:36;;;;;;;0.53;0.20;;;;;;;;;;5074246;28;20036;-61
2021/11/23 02:50:04;;;;;;;2.23;0.20;;;;;;;;;;5074266;28;20387;-61
2021/11/23 02:52:31;;;;;;;0.50;0.20;;;;;;;;;;5073797;28;20020;-60
2021/11/23 02:54:59;;;;;;;0.83;0.23;;;;;;;;;;5089092;28;20028;-61
2021/11/23 02:57:30;;;;;;;0.20;0.17;;;;;;;;;;5088348;28;20036;-61
2021/11/23 02:59:57;;;;;;;0.40;0.20;;;;;;;;;;5070587;28;20028;-61
2021/11/23 03:02:24;;;;;;;0.37;0.10;;;;;;;;;;5093446;28;20022;-61
2021/11/23 03:04:54;;;;;;;0.90;0.20;;;;;;;;;;5093685;28;20030;-61
2021/11/23 03:07:21;;;;;;;3.50;0.30;;;;;;;;;;5093621;28;20020;-61
2021/11/23 03:09:48;;;;;;;1.27;0.20;;;;;;;;;;5092778;28;20103;-63
2021/11/23 03:12:19;;;;;;;0.97;0.17;;;;;;;;;;5055733;28;20024;-61
2021/11/23 03:14:46;;;;;;;0.30;0.20;;;;;;;;;;5068303;28;20025;-61
2021/11/23 03:17:14;;;;;;;0.50;0.27;;;;;;;;;;5068290;28;20040;-61
2021/11/23 03:19:41;;;;;;;0.57;0.30;;;;;;;;;;5068275;28;20024;-61
2021/11/23 03:22:09;;;;;;;0.13;0.10;;;;;;;;;;5068010;28;20029;-61
2021/11/23 03:24:37;;;;;;;0.90;0.37;;;;;;;;;;5078910;28;20020;-61
2021/11/23 03:27:04;;;;;;;0.30;0.17;;;;;;;;;;5074070;28;20475;-61
2021/11/23 03:29:30;;;;;;;0.43;0.20;;;;;;;;;;5073590;28;20111;-60
2021/11/23 03:31:57;;;;;;;0.37;0.20;;;;;;;;;;5073510;28;20024;-61
2021/11/23 03:34:25;;;;;;;0.30;0.20;;;;;;;;;;5073546;28;20055;-61
2021/11/23 03:36:52;;;;;;;0.93;0.27;;;;;;;;;;5067782;28;20054;-61
2021/11/23 03:39:19;;;;;;;0.10;0.10;;;;;;;;;;5067412;28;20020;-61
2021/11/23 03:41:46;;;;;;;0.30;0.20;;;;;;;;;;5050042;28;20029;-61
2021/11/23 03:44:12;;;;;;;2.00;0.30;;;;;;;;;;5067713;28;20028;-61
2021/11/23 03:46:39;;;;;;;0.47;0.10;;;;;;;;;;5072329;28;20085;-61
2021/11/23 03:49:06;;;;;;;0.73;0.20;;;;;;;;;;5073090;28;20046;-61
2021/11/23 03:51:33;;;;;;;1.23;0.30;;;;;;;;;;5055470;28;20111;-59
2021/11/23 03:54:00;;;;;;;0.63;0.30;;;;;;;;;;5072890;28;20040;-61
2021/11/23 03:56:29;;;;;;;0.97;0.20;;;;;;;;;;5092049;28;20040;-61
2021/11/23 03:58:55;;;;;;;4.13;1.47;;;;;;;;;;5068561;28;20040;-61
2021/11/23 04:01:22;;;;;;;0.23;0.20;;;;;;;;;;5067529;28;20025;-61
2021/11/23 04:03:49;;;;;;;0.20;0.10;;;;;;;;;;5067448;28;20036;-61
2021/11/23 04:06:16;;;;;;;0.63;0.10;;;;;;;;;;5067367;28;20081;-62
2021/11/23 04:08:42;;;;;;;0.23;0.17;;;;;;;;;;5071792;28;20033;-61
2021/11/23 04:11:09;;;;;;;2.80;0.60;;;;;;;;;;5072387;28;20020;-60
2021/11/23 04:13:36;;;;;;;3.70;0.40;;;;;;;;;;5072798;28;20025;-60
2021/11/23 04:16:03;;;;;;;0.53;0.17;;;;;;;;;;5074229;28;20040;-60
2021/11/23 04:18:29;;;;;;;0.30;0.20;;;;;;;;;;5087251;28;21746;-61
2021/11/23 04:20:56;;;;;;;0.83;0.30;;;;;;;;;;5067827;28;20024;-60
2021/11/23 04:23:23;;;;;;;0.33;0.20;;;;;;;;;;5067075;28;20093;-60
2021/11/23 04:25:51;;;;;;;0.27;0.10;;;;;;;;;;5066415;28;20032;-60
2021/11/23 04:28:18;;;;;;;0.20;0.20;;;;;;;;;;5066964;28;20522;-60
2021/11/23 04:30:44;;;;;;;0.30;0.20;;;;;;;;;;5071015;28;20438;-60
2021/11/23 04:33:13;;;;;;;0.20;0.10;;;;;;;;;;5085085;28;20032;-60
2021/11/23 04:35:41;;;;;;;1.60;0.10;;;;;;;;;;5092424;28;20398;-60
2021/11/23 04:38:08;;;;;;;0.57;0.20;;;;;;;;;;5092348;28;20047;-60
2021/11/23 04:40:35;;;;;;;0.40;0.17;;;;;;;;;;5091891;28;20060;-60
2021/11/23 04:43:02;;;;;;;0.33;0.10;;;;;;;;;;5082931;28;20020;-60
2021/11/23 04:45:29;;;;;;;0.63;0.20;;;;;;;;;;5070793;28;20030;-61
2021/11/23 04:47:57;;;;;;;0.30;0.10;;;;;;;;;;5075835;28;20475;-59
2021/11/23 04:50:24;;;;;;;0.30;0.10;;;;;;;;;;5048500;28;20027;-63
2021/11/23 04:52:51;;;;;;;0.17;0.17;;;;;;;;;;5088932;28;20107;-60
2021/11/23 04:55:17;;;;;;;0.47;0.20;;;;;;;;;;5092091;28;20024;-60
2021/11/23 04:57:44;;;;;;;0.10;0.10;;;;;;;;;;5092680;28;20036;-61
2021/11/23 05:00:13;;;;;;;1.03;0.20;;;;;;;;;;5092116;28;20125;-61
2021/11/23 05:02:40;;;;;;;0.13;0.10;;;;;;;;;;5092473;28;20051;-61
2021/11/23 05:05:07;;;;;;;0.87;0.27;;;;;;;;;;5077897;28;20531;-61
2021/11/23 05:07:34;;;;;;;0.53;0.30;;;;;;;;;;5066698;28;20025;-61
2021/11/23 05:10:01;;;;;;;0.00;0.00;;;;;;;;;;5066704;28;20029;-61
2021/11/23 05:12:28;;;;;;;0.10;0.10;;;;;;;;;;5066747;28;20021;-61
2021/11/23 05:14:54;;;;;;;1.97;0.23;;;;;;;;;;5070320;28;20082;-62
2021/11/23 05:17:21;;;;;;;0.40;0.10;;;;;;;;;;5072068;28;20041;-61
2021/11/23 05:19:48;;;;;;;0.00;0.00;;;;;;;;;;5072227;28;20079;-61
2021/11/23 05:22:14;;;;;;;0.23;0.10;;;;;;;;;;5072164;28;20467;-61
2021/11/23 05:24:41;;;;;;;0.20;0.10;;;;;;;;;;5071831;28;20078;-61
2021/11/23 05:27:08;;;;;;;0.40;0.20;;;;;;;;;;5081225;28;20020;-62
2021/11/23 05:29:36;;;;;;;0.00;0.00;;;;;;;;;;5087024;28;20032;-62
2021/11/23 05:32:02;;;;;;;0.10;0.10;;;;;;;;;;5077285;28;20093;-61
2021/11/23 05:34:29;;;;;;;0.63;0.20;;;;;;;;;;5087075;28;20131;-61
2021/11/23 05:36:56;;;;;;;0.10;0.10;;;;;;;;;;5089894;28;20028;-61
2021/11/23 05:39:23;;;;;;;1.27;0.20;;;;;;;;;;5095402;28;20035;-61
2021/11/23 05:41:50;;;;;;;0.50;0.10;;;;;;;;;;5095867;28;20028;-61
2021/11/23 05:44:17;;;;;;;0.27;0.10;;;;;;;;;;5095758;28;20088;-61
2021/11/23 05:46:44;;;;;;;0.10;0.07;;;;;;;;;;5095918;28;20035;-61
2021/11/23 05:49:10;;;;;;;0.20;0.00;;;;;;;;;;5092393;28;20028;-61
2021/11/23 05:51:37;;;;;;;0.33;0.10;;;;;;;;;;5090603;28;20036;-61
2021/11/23 05:54:04;;;;;;;0.10;0.10;;;;;;;;;;5090357;28;20077;-62
2021/11/23 05:56:31;;;;;;;0.20;0.10;;;;;;;;;;5076296;28;20121;-61
2021/11/23 05:58:58;;;;;;;0.30;0.10;;;;;;;;;;5072622;28;20021;-61
2021/11/23 06:01:25;;;;;;;0.00;0.00;;;;;;;;;;5075452;28;20498;-61
2021/11/23 06:03:51;;;;;;;0.00;0.00;;;;;;;;;;5075313;28;20013;-61
2021/11/23 06:06:18;;;;;;;1.97;0.10;;;;;;;;;;5076698;28;20021;-62
2021/11/23 06:08:45;;;;;;;0.50;0.00;;;;;;;;;;5095459;28;20035;-61
2021/11/23 06:11:11;;;;;;;0.70;0.30;;;;;;;;;;5092432;28;20021;-61
2021/11/23 06:13:38;;;;;;;3.00;0.13;;;;;;;;;;5090195;28;20057;-61
2021/11/23 06:16:06;;;;;;;0.20;0.10;;;;;;;;;;5089589;28;20035;-61
2021/11/23 06:18:32;;;;;;;0.53;0.10;;;;;;;;;;5089928;28;20122;-61
2021/11/23 06:20:59;;;;;;;0.20;0.10;;;;;;;;;;5092423;28;20491;-61
2021/11/23 06:23:27;;;;;;;0.63;0.30;;;;;;;;;;5095207;28;20024;-61
2021/11/23 06:25:55;;;;;;;0.60;0.30;;;;;;;;;;5094979;28;20409;-61
2021/11/23 06:28:22;;;;;;;0.40;0.10;;;;;;;;;;5095021;28;20374;-61
2021/11/23 06:30:50;;;;;;;0.00;0.00;;;;;;;;;;5094801;28;20110;-61
2021/11/23 06:33:17;;;;;;;0.00;0.00;;;;;;;;;;5091924;28;20551;-61
2021/11/23 06:35:44;;;;;;;0.47;0.17;;;;;;;;;;5087650;28;20025;-61
2021/11/23 06:38:11;;;;;;;0.13;0.13;;;;;;;;;;5069431;28;20487;-61
2021/11/23 06:40:38;;;;;;;0.47;0.30;;;;;;;;;;5069474;28;20036;-61
2021/11/23 06:43:06;;;;;;;0.20;0.10;;;;;;;;;;5071855;28;20485;-61
2021/11/23 06:45:33;;;;;;;0.47;0.17;;;;;;;;;;5074070;28;20017;-61
2021/11/23 06:48:00;;;;;;;0.30;0.20;;;;;;;;;;5074410;28;20021;-61
2021/11/23 06:50:33;;;;;;;0.67;0.20;;;;;;;;;;5074070;28;20085;-61
2021/11/23 06:53:03;;;;;;;0.10;0.10;;;;;;;;;;5074389;28;20058;-61
2021/11/23 06:55:30;;;;;;;1.40;0.23;;;;;;;;;;5071078;28;20032;-61
2021/11/23 06:57:57;;;;;;;1.47;0.50;;;;;;;;;;5068924;28;20021;-61
2021/11/23 07:00:24;;;;;;;2.73;0.40;;;;;;;;;;5068948;28;20044;-61
2021/11/23 07:02:51;;;;;;;0.23;0.20;;;;;;;;;;5069074;28;20056;-61
2021/11/23 07:05:17;;;;;;;1.57;0.50;;;;;;;;;;5074745;28;20031;-61
2021/11/23 07:07:44;;;;;;;0.73;0.20;;;;;;;;;;5094349;28;20028;-61
2021/11/23 07:10:12;;;;;;;0.63;0.10;;;;;;;;;;5094209;28;20121;-61
2021/11/23 07:12:39;;;;;;;0.47;0.30;;;;;;;;;;5094241;28;20039;-61
2021/11/23 07:15:06;;;;;;;1.50;0.40;;;;;;;;;;5093790;28;20477;-62
2021/11/23 07:17:33;;;;;;;1.93;0.30;;;;;;;;;;5090267;28;20036;-61
2021/11/23 07:20:00;;;;;;;0.43;0.37;;;;;;;;;;5088399;28;20416;-61
2021/11/23 07:22:27;;;;;;;0.40;0.30;;;;;;;;;;5088930;28;20489;-61
2021/11/23 07:24:54;;;;;;;0.50;0.20;;;;;;;;;;5088813;28;20488;-61
2021/11/23 07:27:20;;;;;;;0.87;0.30;;;;;;;;;;5091019;28;20016;-61
2021/11/23 07:29:47;;;;;;;1.97;0.50;;;;;;;;;;5093536;28;20484;-61
2021/11/23 07:32:14;;;;;;;0.87;0.33;;;;;;;;;;5093810;28;20028;-61
2021/11/23 07:34:41;;;;;;;2.03;0.03;;;;;;;;;;5093927;28;20066;-61
2021/11/23 07:37:08;;;;;;;0.20;0.20;;;;;;;;;;5094207;28;20034;-61
2021/11/23 07:39:35;;;;;;;1.90;0.40;;;;;;;;;;5091247;28;20469;-61
2021/11/23 07:42:04;;;;;;;0.27;0.17;;;;;;;;;;5088469;28;20051;-61
2021/11/23 07:44:30;;;;;;;0.43;0.30;;;;;;;;;;5088353;28;20024;-61
2021/11/23 07:46:57;;;;;;;0.00;0.00;;;;;;;;;;5087557;28;20039;-61
2021/11/23 07:49:24;;;;;;;0.23;0.03;;;;;;;;;;5070396;28;20652;-61
2021/11/23 07:51:51;;;;;;;0.47;0.10;;;;;;;;;;5073247;28;20021;-62
2021/11/23 07:54:17;;;;;;;0.20;0.10;;;;;;;;;;5073331;28;21127;-61
2021/11/23 07:56:44;;;;;;;0.13;0.13;;;;;;;;;;5073291;28;20037;-61
2021/11/23 07:59:12;;;;;;;0.10;0.03;;;;;;;;;;5093325;28;20386;-61
2021/11/23 08:01:39;;;;;;;1.03;0.10;;;;;;;;;;5089615;28;20039;-62
2021/11/23 08:04:06;;;;;;;0.60;0.20;;;;;;;;;;5088106;28;20031;-61
2021/11/23 08:06:33;;;;;;;0.50;0.20;;;;;;;;;;5088108;28;20466;-62
2021/11/23 08:09:00;;;;;;;0.20;0.10;;;;;;;;;;5088024;28;20470;-61
2021/11/23 08:11:26;;;;;;;0.10;0.10;;;;;;;;;;5089724;28;20047;-61
2021/11/23 08:13:53;;;;;;;0.93;0.27;;;;;;;;;;5073873;28;20066;-61
2021/11/23 08:16:22;;;;;;;0.10;0.03;;;;;;;;;;5072343;28;20032;-61
2021/11/23 08:18:49;;;;;;;1.80;0.10;;;;;;;;;;5072644;28;20060;-61
2021/11/23 08:21:16;;;;;;;0.10;0.10;;;;;;;;;;5072735;28;20034;-61
2021/11/23 08:23:44;;;;;;;1.33;0.10;;;;;;;;;;5070685;28;20028;-61
2021/11/23 08:26:11;;;;;;;0.47;0.10;;;;;;;;;;5067594;28;20023;-61
2021/11/23 08:28:38;;;;;;;0.00;0.00;;;;;;;;;;5067393;28;20060;-61
2021/11/23 08:31:05;;;;;;;2.70;0.17;;;;;;;;;;5067475;28;20055;-61
2021/11/23 08:33:32;;;;;;;0.63;0.23;;;;;;;;;;5068290;28;20021;-61
2021/11/23 08:35:59;;;;;;;0.27;0.10;;;;;;;;;;5072727;28;20379;-61
2021/11/23 08:38:25;;;;;;;0.73;0.17;;;;;;;;;;5072546;28;20489;-61
2021/11/23 08:40:52;;;;;;;0.97;0.10;;;;;;;;;;5081859;28;20497;-61
2021/11/23 08:43:19;;;;;;;0.47;0.23;;;;;;;;;;5092788;28;20020;-61
2021/11/23 08:45:46;;;;;;;0.57;0.20;;;;;;;;;;5090798;28;20020;-61
2021/11/23 08:48:13;;;;;;;0.60;0.30;;;;;;;;;;5087311;28;20020;-61
2021/11/23 08:50:40;;;;;;;1.03;0.30;;;;;;;;;;5087217;28;20016;-61
2021/11/23 08:53:08;;;;;;;0.43;0.10;;;;;;;;;;5087188;28;20739;-61
2021/11/23 08:55:36;;;;;;;0.40;0.10;;;;;;;;;;5088392;28;20470;-61
2021/11/23 08:58:04;;;;;;;0.30;0.20;;;;;;;;;;5092441;28;20423;-61
2021/11/23 09:00:31;;;;;;;0.37;0.20;;;;;;;;;;5092482;28;20024;-61
2021/11/23 09:02:59;;;;;;;0.27;0.20;;;;;;;;;;5092399;28;20374;-61
2021/11/23 09:05:27;;;;;;;0.10;0.10;;;;;;;;;;5092161;28;20537;-61
2021/11/23 09:07:56;;;;;;;0.10;0.10;;;;;;;;;;5090330;28;20047;-62
2021/11/23 09:10:25;;;;;;;1.10;0.30;;;;;;;;;;5076186;28;20482;-61
2021/11/23 09:12:52;;;;;;;0.83;0.30;;;;;;;;;;5069574;28;20095;-61
2021/11/23 09:15:19;;;;;;;0.40;0.20;;;;;;;;;;5070954;28;20474;-60
2021/11/23 09:17:47;;;;;;;0.40;0.20;;;;;;;;;;5071898;28;20036;-61
2021/11/23 09:20:14;;;;;;;0.13;0.10;;;;;;;;;;5076293;28;20082;-61
2021/11/23 09:22:41;;;;;;;0.00;0.00;;;;;;;;;;5075984;28;20467;-61
2021/11/23 09:25:09;;;;;;;0.10;0.07;;;;;;;;;;5076064;28;20383;-61
2021/11/23 09:27:36;;;;;;;0.40;0.23;;;;;;;;;;5076088;28;20025;-61
2021/11/23 09:30:04;;;;;;;0.10;0.10;;;;;;;;;;5074257;28;20031;-61
2021/11/23 09:32:30;;;;;;;0.33;0.10;;;;;;;;;;5070484;28;20023;-61
2021/11/23 09:34:57;;;;;;;0.10;0.10;;;;;;;;;;5070654;28;20029;-61
2021/11/23 09:37:24;;;;;;;0.00;0.00;;;;;;;;;;5070481;28;20043;-61
2021/11/23 09:39:51;;;;;;;0.27;0.10;;;;;;;;;;5082969;28;20024;-61
2021/11/23 09:42:19;;;;;;;0.10;0.10;;;;;;;;;;5096064;28;20024;-61
2021/11/23 09:44:46;;;;;;;0.10;0.10;;;;;;;;;;5096025;28;20020;-61
2021/11/23 09:47:14;;;;;;;0.17;0.10;;;;;;;;;;5095958;28;20103;-61
2021/11/23 09:49:41;;;;;;;0.20;0.10;;;;;;;;;;5095998;28;20020;-61
2021/11/23 09:52:07;;;;;;;2.00;0.23;;;;;;;;;;5094170;28;20085;-61
2021/11/23 09:54:35;;;;;;;0.47;0.10;;;;;;;;;;5090361;28;20031;-61
2021/11/23 09:57:02;;;;;;;0.17;0.10;;;;;;;;;;5090282;28;20060;-61
2021/11/23 09:59:28;;;;;;;0.60;0.13;;;;;;;;;;5090547;28;20071;-61
2021/11/23 10:01:56;;;;;;;0.63;0.17;;;;;;;;;;5091533;28;20023;-61
2021/11/23 10:04:24;;;;;;;0.40;0.10;;;;;;;;;;5095107;28;20024;-61
2021/11/23 10:06:58;;;;;;;0.40;0.10;;;;;;;;;;5093843;28;20035;-61
2021/11/23 10:09:30;;;;;;;0.00;0.00;;;;;;;;;;5095590;28;20020;-61
2021/11/23 10:12:11;;;;;;;1.80;0.30;;;;;;;;;;5095332;28;20385;-61
2021/11/23 10:14:39;;;;;;;0.23;0.10;;;;;;;;;;5091566;28;20505;-61
2021/11/23 10:17:23;;;;;;;0.20;0.10;;;;;;;;;;5069679;28;20051;-61
2021/11/23 10:19:50;;;;;;;0.03;0.03;;;;;;;;;;5069868;28;20123;-61
2021/11/23 10:22:30;;;;;;;0.97;0.20;;;;;;;;;;5069827;28;20024;-61
2021/11/23 10:25:15;;;;;;;0.13;0.00;;;;;;;;;;5071653;28;20037;-61
2021/11/23 10:27:42;;;;;;;0.37;0.20;;;;;;;;;;5074962;28;20016;-61
2021/11/23 10:30:09;;;;;;;0.67;0.10;;;;;;;;;;5074805;28;20116;-61
2021/11/23 10:32:48;;;;;;;0.20;0.20;;;;;;;;;;5074716;28;20028;-61
2021/11/23 10:35:18;;;;;;;0.23;0.10;;;;;;;;;;5074683;28;20432;-61
2021/11/23 10:37:46;;;;;;;0.47;0.20;;;;;;;;;;5070316;28;20100;-61
2021/11/23 10:40:18;;;;;;;0.30;0.10;;;;;;;;;;5069403;28;20021;-61
2021/11/23 10:42:45;;;;;;;0.63;0.20;;;;;;;;;;5069549;28;20024;-61
2021/11/23 10:45:12;;;;;;;0.10;0.10;;;;;;;;;;5079310;28;20028;-61
2021/11/23 10:47:40;;;;;;;0.10;0.10;;;;;;;;;;5093388;28;20027;-61
2021/11/23 10:50:08;;;;;;;0.13;0.13;;;;;;;;;;5094766;28;20113;-61
2021/11/23 10:52:38;;;;;;;0.20;0.10;;;;;;;;;;5094904;28;20016;-61
2021/11/23 10:55:23;;;;;;;0.10;0.10;;;;;;;;;;5094711;28;20492;-61
2021/11/23 10:57:50;;;;;;;2.10;0.10;;;;;;;;;;5094466;28;20475;-61
2021/11/23 11:00:18;;;;;;;0.30;0.10;;;;;;;;;;5089166;28;20453;-61
2021/11/23 11:02:45;;;;;;;0.20;0.10;;;;;;;;;;5089210;28;20032;-61
2021/11/23 11:05:15;;;;;;;0.67;0.20;;;;;;;;;;5089168;28;20394;-61
2021/11/23 11:07:44;;;;;;;0.10;0.03;;;;;;;;;;5089047;28;20027;-61
2021/11/23 11:10:11;;;;;;;0.43;0.10;;;;;;;;;;5093626;28;20107;-61
2021/11/23 11:12:39;;;;;;;0.30;0.20;;;;;;;;;;5094425;28;20028;-61
2021/11/23 11:15:08;;;;;;;0.50;0.20;;;;;;;;;;5079605;28;20032;-61
2021/11/23 11:17:37;;;;;;;0.53;0.10;;;;;;;;;;5073735;28;20120;-61
2021/11/23 11:20:06;;;;;;;0.20;0.20;;;;;;;;;;5073816;28;20027;-61
2021/11/23 11:22:33;;;;;;;0.40;0.40;;;;;;;;;;5068473;28;20025;-61
2021/11/23 11:25:25;;;;;;;0.43;0.10;;;;;;;;;;5068333;28;20099;-62
2021/11/23 11:27:52;;;;;;;0.20;0.10;;;;;;;;;;5068384;28;20039;-61
2021/11/23 11:30:29;;;;;;;1.53;0.10;;;;;;;;;;5068788;28;20024;-61
2021/11/23 11:33:00;;;;;;;0.10;0.10;;;;;;;;;;5073149;28;20024;-61
2021/11/23 11:35:31;;;;;;;0.67;0.27;;;;;;;;;;5072571;28;20024;-61
2021/11/23 11:38:03;;;;;;;0.47;0.20;;;;;;;;;;5073642;28;20024;-61
2021/11/23 11:40:32;;;;;;;0.10;0.10;;;;;;;;;;5073372;28;20161;-62
2021/11/23 11:43:00;;;;;;;0.97;0.93;;;;;;;;;;5073243;28;20078;-61
2021/11/23 11:45:38;;;;;;;0.13;0.10;;;;;;;;;;5088175;28;20024;-61
2021/11/23 11:48:23;;;;;;;0.50;0.20;;;;;;;;;;5088311;28;20053;-61
2021/11/23 11:50:57;;;;;;;2.08;0.10;;;;;;;;;;5088312;28;20028;-61
2021/11/23 11:53:24;;;;;;;0.37;0.20;;;;;;;;;;5090793;28;20012;-61
2021/11/23 11:55:51;;;;;;;0.77;0.30;;;;;;;;;;5093333;28;20648;-61
2021/11/23 11:58:57;;;;;;;0.40;0.40;;;;;;;;;;5093234;28;20103;-61
2021/11/23 12:01:26;;;;;;;0.98;0.30;;;;;;;;;;5030085;28;20025;-61
2021/11/23 12:04:02;;;;;;;1.00;0.40;;;;;;;;;;5083377;28;20035;-61
2021/11/23 12:06:47;;;;;;;0.20;0.20;;;;;;;;;;5088274;28;20040;-61
2021/11/23 12:09:32;;;;;;;1.55;0.40;;;;;;;;;;5087781;28;20088;-61
2021/11/23 12:12:11;;;;;;;3.42;0.20;;;;;;;;;;5086085;28;20032;-61
2021/11/23 12:14:54;;;;;;;0.30;0.20;;;;;;;;;;5088104;28;20133;-61
2021/11/23 12:17:30;;;;;;;0.40;0.20;;;;;;;;;;5084240;28;20468;-61
2021/11/23 12:20:10;;;;;;;0.33;0.30;;;;;;;;;;5072629;28;20485;-61
2021/11/23 12:22:48;;;;;;;2.07;0.87;;;;;;;;;;5072596;28;20036;-61
2021/11/23 12:25:19;;;;;;;1.40;0.63;;;;;;;;;;5072706;28;20032;-61
2021/11/23 12:27:47;;;;;;;0.63;0.30;;;;;;;;;;5069780;28;20102;-61
2021/11/23 12:30:14;;;;;;;1.67;0.80;;;;;;;;;;5067313;28;20486;-61
2021/11/23 12:32:42;;;;;;;0.63;0.40;;;;;;;;;;5078211;28;20020;-61
2021/11/23 12:35:10;;;;;;;1.27;0.53;;;;;;;;;;5087589;28;20081;-61
2021/11/23 12:37:39;;;;;;;2.13;1.33;;;;;;;;;;5089402;28;20116;-61
2021/11/23 12:40:16;;;;;;;4.50;2.37;;;;;;;;;;5092690;28;20024;-61
2021/11/23 12:42:54;;;;;;;2.77;1.40;;;;;;;;;;5092712;28;20032;-61
2021/11/23 12:45:37;;;;;;;3.07;1.70;;;;;;;;;;5092412;28;20032;-61
2021/11/23 12:48:06;;;;;;;1.30;0.80;;;;;;;;;;5092157;28;20436;-61
2021/11/23 12:50:33;;;;;;;2.37;0.90;;;;;;;;;;5088368;28;20058;-61
2021/11/23 12:53:08;;;;;;;1.43;0.70;;;;;;;;;;5087162;28;20020;-61
2021/11/23 12:55:35;;;;;;;;;;;;;;;;;;5087572;28;20024;-61
2021/11/23 12:58:02;;;;;;;2.80;0.50;;;;;;;;;;5086892;28;19915;-61
2021/11/23 13:00:29;;;;;;;2.37;1.10;;;;;;;;;;5090938;28;20023;-61
2021/11/23 13:02:56;;;;;;;1.83;0.90;;;;;;;;;;5073964;28;20029;-61
2021/11/23 13:05:24;;;;;;;2.30;1.00;;;;;;;;;;5072106;28;20033;-61
2021/11/23 13:07:54;;;;;;;3.40;0.90;;;;;;;;;;5072206;28;20043;-61
2021/11/23 13:10:26;;;;;;;5.13;1.13;;;;;;;;;;5071883;28;20040;-61
2021/11/23 13:12:55;;;;;;;2.27;1.20;;;;;;;;;;5067707;28;20020;-61
2021/11/23 13:15:26;;;;;;;4.10;0.93;;;;;;;;;;5067084;28;20556;-61
2021/11/23 13:17:55;;;;;;;3.73;1.10;;;;;;;;;;5066992;28;20501;-61
2021/11/23 13:20:22;;;;;;;1.00;0.60;;;;;;;;;;5068110;28;20402;-61
2021/11/23 13:22:50;;;;;;;1.77;0.90;;;;;;;;;;5091060;28;20106;-61
2021/11/23 13:25:18;;;;;;;1.67;0.80;;;;;;;;;;5091970;28;20039;-61
2021/11/23 13:27:45;;;;;;;2.17;0.97;;;;;;;;;;5092495;28;20111;-61
2021/11/23 13:30:30;;;;;;;1.80;1.00;;;;;;;;;;5092484;28;20020;-61
2021/11/23 13:32:57;;;;;;;1.27;0.77;;;;;;;;;;5092295;28;20032;-61
2021/11/23 13:35:23;;;;;;;1.77;0.90;;;;;;;;;;5086713;28;20024;-61
2021/11/23 13:37:50;;;;;;;1.70;0.90;;;;;;;;;;5087119;28;20493;-61
2021/11/23 13:40:21;;;;;;;2.20;0.90;;;;;;;;;;5087160;28;20027;-61
2021/11/23 13:42:48;;;;;;;1.87;0.83;;;;;;;;;;5085197;28;20034;-62
2021/11/23 13:45:19;;;;;;;1.37;0.87;;;;;;;;;;5091961;28;20069;-61
2021/11/23 13:47:46;;;;;;;2.17;1.00;;;;;;;;;;5092022;28;20035;-61
2021/11/23 13:50:14;;;;;;;3.67;0.90;;;;;;;;;;5091622;28;20108;-61
2021/11/23 13:52:41;;;;;;;1.47;0.77;;;;;;;;;;5091964;28;20024;-62
2021/11/23 13:55:11;;;;;;;1.93;1.20;;;;;;;;;;5073412;28;20023;-61
2021/11/23 13:57:43;;;;;;;1.40;0.83;;;;;;;;;;5073439;28;20032;-61
2021/11/23 14:00:10;;;;;;;1.73;0.70;;;;;;;;;;5069652;28;20491;-62
2021/11/23 14:02:43;;;;;;;2.50;0.80;;;;;;;;;;5070301;28;20025;-61
2021/11/23 14:05:10;;;;;;;1.30;0.60;;;;;;;;;;5070474;28;20111;-61
2021/11/23 14:07:49;;;;;;;3.63;1.13;;;;;;;;;;5095121;28;20070;-61
2021/11/23 14:10:29;;;;;;;1.13;0.40;;;;;;;;;;5095693;28;20076;-61
2021/11/23 14:13:06;;;;;;;3.00;0.50;;;;;;;;;;5078999;28;20035;-61
2021/11/23 14:15:48;;;;;;;0.73;0.30;;;;;;;;;;5075259;28;20082;-61
2021/11/23 14:18:18;;;;;;;0.23;0.20;;;;;;;;;;5072597;28;20486;-61
2021/11/23 14:20:46;;;;;;;1.10;0.30;;;;;;;;;;5070049;28;20486;-61
2021/11/23 14:23:14;;;;;;;2.43;0.40;;;;;;;;;;5070034;28;20028;-61
2021/11/23 14:25:46;;;;;;;1.37;0.40;;;;;;;;;;5060348;28;20021;-62
2021/11/23 14:28:13;;;;;;;2.53;0.50;;;;;;;;;;5052060;28;20039;-61
2021/11/23 14:30:41;;;;;;;2.20;0.37;;;;;;;;;;5054875;28;20036;-61
2021/11/23 14:33:09;;;;;;;0.63;0.40;;;;;;;;;;5054976;28;20020;-61
2021/11/23 14:35:35;;;;;;;3.93;0.50;;;;;;;;;;5054274;28;20091;-61
2021/11/23 14:38:02;;;;;;;3.20;0.37;;;;;;;;;;5054778;28;20029;-61
2021/11/23 14:40:29;;;;;;;2.37;0.70;;;;;;;;;;5052259;28;20081;-61
2021/11/23 14:42:56;;;;;;;1.13;0.60;;;;;;;;;;5066726;28;20032;-61
2021/11/23 14:45:23;;;;;;;0.50;0.30;;;;;;;;;;5069625;28;20052;-61
2021/11/23 14:47:50;;;;;;;0.87;0.50;;;;;;;;;;5069508;28;20055;-62
2021/11/23 14:50:16;;;;;;;1.33;0.43;;;;;;;;;;5071025;28;20036;-61